Moquegua, Peru
Current Conditions -  °F | °C
As of 7:00 AM on Saturday 01 Nov 2014 (Local Time) from SPQU Reporting Station
Clear Clear  
Wind Chill: 61°   Ceiling: Unl
Heat Index: 61°   Visibility: 6mi
Dew Point: 34°   Wind: 2mph
Humidity: 36%   Direction: NA
Pressure: 30.3"   Gusts: NA
Location:  17.19°S, 70.94°W
Report Text: SPQU 011200Z VRB02KT CAVOK 16/01 Q1026 NOSIGRMK PP000
Loading
Personal Weather Stations






























Interactive Weather Map
Tropical Storm Tracking
New forecast layout! Learn more

10-Day Weather Forecast

Advertisements
Track Severe Weather on mobile